createdAt,value
2022-10-18T00:00:53.040Z,15.18
2022-10-18T00:03:19.605Z,15.14
2022-10-18T00:05:48.029Z,15.13
2022-10-18T00:08:14.868Z,15.11
2022-10-18T00:10:41.403Z,15.13
2022-10-18T00:13:08.064Z,15.14
2022-10-18T00:15:34.717Z,15.14
2022-10-18T00:18:01.287Z,15.15
2022-10-18T00:20:28.863Z,15.18
2022-10-18T00:22:55.977Z,15.18
2022-10-18T00:25:22.984Z,15.18
2022-10-18T00:27:50.349Z,15.15
2022-10-18T00:30:16.982Z,15.11
2022-10-18T00:32:43.530Z,15.14
2022-10-18T00:35:10.361Z,15.14
2022-10-18T00:37:37.038Z,15.13
2022-10-18T00:40:04.897Z,15.13
2022-10-18T00:42:33.878Z,15.13
2022-10-18T00:45:22.922Z,15.12
2022-10-18T00:47:55.587Z,15.11
2022-10-18T00:50:24.760Z,15.10
2022-10-18T00:52:54.657Z,15.10
2022-10-18T00:55:21.844Z,15.10
2022-10-18T00:57:49.814Z,15.11
2022-10-18T01:00:16.644Z,15.08
2022-10-18T01:02:44.851Z,15.09
2022-10-18T01:05:17.443Z,15.11
2022-10-18T01:07:52.892Z,15.10
2022-10-18T01:10:25.305Z,15.09
2022-10-18T01:13:00.960Z,15.11
2022-10-18T01:15:31.283Z,15.11
2022-10-18T01:17:57.771Z,15.13
2022-10-18T01:20:39.727Z,15.15
2022-10-18T01:23:28.004Z,15.15
2022-10-18T01:26:13.659Z,15.17
2022-10-18T01:28:49.513Z,15.16
2022-10-18T01:31:21.677Z,15.16
2022-10-18T01:33:53.751Z,15.08
2022-10-18T01:36:48.619Z,15.11
2022-10-18T01:39:20.410Z,15.14
2022-10-18T01:41:49.295Z,15.14
2022-10-18T01:44:21.225Z,15.14
2022-10-18T01:46:49.301Z,15.15
2022-10-18T01:49:15.832Z,15.09
2022-10-18T01:51:42.394Z,15.11
2022-10-18T01:54:10.432Z,15.10
2022-10-18T01:56:59.368Z,15.10
2022-10-18T01:59:41.376Z,15.13
2022-10-18T02:02:35.948Z,15.14
2022-10-18T02:05:40.939Z,15.13
2022-10-18T02:08:23.193Z,15.13
2022-10-18T02:10:55.837Z,15.12
2022-10-18T02:13:26.553Z,15.13
2022-10-18T02:15:59.165Z,15.09
2022-10-18T02:18:34.471Z,15.10
2022-10-18T02:21:04.016Z,15.09
2022-10-18T02:23:32.683Z,15.07
2022-10-18T02:25:59.332Z,15.08
2022-10-18T02:28:26.564Z,15.05
2022-10-18T02:31:19.585Z,14.99
2022-10-18T02:34:04.997Z,14.99
2022-10-18T02:36:34.189Z,15.02
2022-10-18T02:39:05.053Z,14.98
2022-10-18T02:41:32.390Z,14.96
2022-10-18T02:43:58.988Z,14.99
2022-10-18T02:48:57.107Z,15.02
2022-10-18T02:51:23.796Z,15.02
2022-10-18T02:53:50.366Z,15.02
2022-10-18T02:56:16.903Z,15.01
2022-10-18T02:58:43.444Z,15.01
2022-10-18T03:01:10.134Z,15.02
2022-10-18T03:03:36.746Z,15.00
2022-10-18T03:06:03.461Z,14.97
2022-10-18T03:08:30.064Z,14.97
2022-10-18T03:10:56.609Z,15.01
2022-10-18T03:13:23.224Z,15.02
2022-10-18T03:15:49.944Z,15.02
2022-10-18T03:18:16.573Z,15.03
2022-10-18T03:20:43.192Z,15.03
2022-10-18T03:23:09.946Z,15.01
2022-10-18T03:25:36.530Z,15.01
2022-10-18T03:28:03.392Z,15.01
2022-10-18T03:30:29.991Z,14.96
2022-10-18T03:32:56.616Z,14.93
2022-10-18T03:35:23.205Z,14.88
2022-10-18T03:37:49.835Z,14.85
2022-10-18T03:40:16.634Z,14.81
2022-10-18T03:42:43.277Z,14.82
2022-10-18T03:45:10.377Z,14.82
2022-10-18T03:47:36.948Z,14.80
2022-10-18T03:50:04.153Z,14.82
2022-10-18T03:52:31.035Z,14.86
2022-10-18T03:54:57.869Z,14.87
2022-10-18T03:57:24.480Z,14.86
2022-10-18T03:59:51.140Z,14.87
2022-10-18T04:02:18.430Z,14.90
2022-10-18T04:04:45.015Z,14.83
2022-10-18T04:07:11.608Z,14.76
2022-10-18T04:09:38.140Z,14.78
2022-10-18T04:12:04.993Z,14.78
2022-10-18T04:14:31.573Z,14.78
2022-10-18T04:16:58.291Z,14.79
2022-10-18T04:19:24.888Z,14.81
2022-10-18T04:21:51.505Z,14.78
2022-10-18T04:24:18.082Z,14.79
2022-10-18T04:26:44.667Z,14.79
2022-10-18T04:29:12.380Z,14.79
2022-10-18T04:31:39.592Z,14.82
2022-10-18T04:34:06.926Z,14.84
2022-10-18T04:36:34.191Z,14.85
2022-10-18T04:39:00.761Z,14.84
2022-10-18T04:41:27.413Z,14.82
2022-10-18T04:43:54.048Z,14.85
2022-10-18T04:46:20.620Z,14.79
2022-10-18T04:48:47.260Z,14.79
2022-10-18T04:51:13.889Z,14.83
2022-10-18T04:53:40.476Z,14.79
2022-10-18T04:56:07.590Z,14.70
2022-10-18T04:58:34.381Z,14.67
2022-10-18T05:01:04.359Z,14.62
2022-10-18T05:03:30.908Z,14.63
2022-10-18T05:06:02.558Z,14.65
2022-10-18T05:08:30.686Z,14.65
2022-10-18T05:10:57.376Z,14.69
2022-10-18T05:13:24.069Z,14.63
2022-10-18T05:15:50.953Z,14.60
2022-10-18T05:18:17.834Z,14.61
2022-10-18T05:20:44.486Z,14.54
2022-10-18T05:23:11.108Z,14.62
2022-10-18T05:25:43.864Z,14.56
2022-10-18T05:28:11.111Z,14.58
2022-10-18T05:30:42.555Z,14.61
2022-10-18T05:33:09.669Z,14.64
2022-10-18T05:35:36.757Z,14.67
2022-10-18T05:38:05.759Z,14.69
2022-10-18T05:40:38.568Z,14.72
2022-10-18T05:43:05.213Z,14.76
2022-10-18T05:45:31.753Z,14.76
2022-10-18T05:47:58.369Z,14.75
2022-10-18T05:50:24.958Z,14.76
2022-10-18T05:52:51.509Z,14.75
2022-10-18T05:55:18.185Z,14.75
2022-10-18T05:57:49.593Z,14.75
2022-10-18T06:00:16.432Z,14.76
2022-10-18T06:02:43.025Z,14.78
2022-10-18T06:05:09.693Z,14.77
2022-10-18T06:07:36.254Z,14.76
2022-10-18T06:10:02.989Z,14.78
2022-10-18T06:12:29.564Z,14.81
2022-10-18T06:14:56.170Z,14.84
2022-10-18T06:17:22.757Z,14.88
2022-10-18T06:19:49.353Z,14.89
2022-10-18T06:22:15.994Z,14.88
2022-10-18T06:24:42.603Z,14.89
2022-10-18T06:27:09.590Z,14.90
2022-10-18T06:29:37.610Z,14.91
2022-10-18T06:32:05.784Z,14.92
2022-10-18T06:34:33.042Z,14.91
2022-10-18T06:37:00.181Z,14.91
2022-10-18T06:39:26.882Z,14.92
2022-10-18T06:41:53.630Z,14.96
2022-10-18T06:44:21.097Z,15.01
2022-10-18T06:46:49.165Z,15.04
2022-10-18T06:49:18.959Z,15.06
2022-10-18T06:51:46.534Z,15.06
2022-10-18T06:54:17.865Z,15.09
2022-10-18T06:56:45.208Z,15.11
2022-10-18T06:59:11.790Z,15.18
2022-10-18T07:01:38.629Z,15.19
2022-10-18T07:04:05.230Z,15.20
2022-10-18T07:06:31.870Z,15.22
2022-10-18T07:08:58.622Z,15.21
2022-10-18T07:11:27.165Z,15.22
2022-10-18T07:13:55.533Z,15.26
2022-10-18T07:16:22.348Z,15.30
2022-10-18T07:18:51.148Z,15.33
2022-10-18T07:21:20.473Z,15.36
2022-10-18T07:23:47.701Z,15.40
2022-10-18T07:26:27.161Z,15.42
2022-10-18T07:29:00.573Z,15.44
2022-10-18T07:31:27.495Z,15.44
2022-10-18T07:33:54.432Z,15.44
2022-10-18T07:36:22.239Z,15.43
2022-10-18T07:38:50.002Z,15.47
2022-10-18T07:41:16.558Z,15.51
2022-10-18T07:43:45.931Z,15.59
2022-10-18T07:46:13.705Z,15.66
2022-10-18T07:48:40.788Z,15.72
2022-10-18T07:51:07.741Z,15.75
2022-10-18T07:53:34.666Z,15.77
2022-10-18T07:56:07.097Z,15.83
2022-10-18T07:58:36.332Z,15.83
2022-10-18T08:01:05.301Z,15.88
2022-10-18T08:03:32.452Z,15.92
2022-10-18T08:05:59.597Z,15.95
2022-10-18T08:08:27.465Z,15.91
2022-10-18T08:10:54.377Z,15.84
2022-10-18T08:13:22.367Z,15.94
2022-10-18T08:15:48.937Z,15.95
2022-10-18T08:18:15.683Z,15.95
2022-10-18T08:20:45.805Z,15.95
2022-10-18T08:23:12.848Z,15.99
2022-10-18T08:25:39.509Z,16.05
2022-10-18T08:28:07.068Z,16.12
2022-10-18T08:30:35.025Z,16.13
2022-10-18T08:33:02.171Z,16.25
2022-10-18T08:35:28.806Z,16.34
2022-10-18T08:37:55.367Z,16.38
2022-10-18T08:40:22.112Z,16.42
2022-10-18T08:43:19.338Z,16.29
2022-10-18T08:45:51.025Z,16.32
2022-10-18T08:48:30.862Z,16.39
2022-10-18T08:50:58.463Z,16.39
2022-10-18T08:53:39.290Z,16.49
2022-10-18T08:56:18.868Z,16.56
2022-10-18T08:58:45.546Z,16.55
2022-10-18T09:01:43.210Z,16.60
2022-10-18T09:04:33.053Z,16.63
2022-10-18T09:07:36.799Z,16.63
2022-10-18T09:10:06.383Z,16.59
2022-10-18T09:12:57.862Z,16.60
2022-10-18T09:15:42.531Z,16.58
2022-10-18T09:18:18.187Z,16.67
2022-10-18T09:21:05.345Z,16.73
2022-10-18T09:24:02.163Z,16.73
2022-10-18T09:26:38.715Z,16.78
2022-10-18T09:29:43.133Z,16.63
2022-10-18T09:32:40.674Z,16.70
2022-10-18T09:35:30.614Z,16.62
2022-10-18T09:38:04.641Z,16.65
2022-10-18T09:40:37.081Z,16.66
2022-10-18T09:43:13.428Z,16.57
2022-10-18T09:45:42.984Z,16.49
2022-10-18T09:48:21.662Z,16.58
2022-10-18T09:51:06.277Z,16.72
2022-10-18T09:53:40.953Z,16.79
2022-10-18T09:56:24.196Z,16.86
2022-10-18T09:58:54.046Z,16.95
2022-10-18T10:01:29.733Z,17.00
2022-10-18T10:03:56.644Z,17.02
2022-10-18T10:06:27.956Z,17.01
2022-10-18T10:09:06.090Z,17.04
2022-10-18T10:11:37.923Z,17.08
2022-10-18T10:16:59.400Z,17.03
2022-10-18T10:19:33.294Z,17.00
2022-10-18T10:22:05.265Z,16.97
2022-10-18T10:24:53.054Z,16.96
2022-10-18T10:27:43.593Z,16.92
2022-10-18T10:30:26.641Z,17.02
2022-10-18T10:32:54.833Z,17.03
2022-10-18T10:35:53.203Z,17.02
2022-10-18T10:38:28.898Z,16.96
2022-10-18T10:40:56.309Z,17.02
2022-10-18T10:43:43.021Z,16.97
2022-10-18T10:46:13.600Z,17.03
2022-10-18T10:49:13.950Z,17.15
2022-10-18T10:51:43.581Z,17.20
2022-10-18T10:54:20.785Z,17.20
2022-10-18T10:57:20.613Z,17.17
2022-10-18T10:59:52.574Z,17.22
2022-10-18T11:02:32.619Z,17.12
2022-10-18T11:05:23.406Z,17.22
2022-10-18T11:07:57.586Z,17.19
2022-10-18T11:10:28.215Z,17.17
2022-10-18T11:13:26.930Z,17.25
2022-10-18T11:16:00.367Z,17.26
2022-10-18T11:18:36.830Z,17.30
2022-10-18T11:21:23.624Z,17.31
2022-10-18T11:23:50.561Z,17.34
2022-10-18T11:26:49.969Z,17.36
2022-10-18T11:29:35.942Z,17.32
2022-10-18T11:32:24.617Z,17.19
2022-10-18T11:35:10.282Z,17.24
2022-10-18T11:37:59.664Z,17.31
2022-10-18T11:41:04.276Z,17.33
2022-10-18T11:44:01.096Z,17.30
2022-10-18T11:46:47.825Z,17.36
2022-10-18T11:49:52.815Z,17.25
2022-10-18T11:52:53.313Z,17.30
2022-10-18T11:55:37.967Z,17.27
2022-10-18T11:58:33.955Z,17.39
2022-10-18T12:01:15.922Z,17.37
2022-10-18T12:03:57.889Z,17.51
2022-10-18T12:06:30.687Z,17.59
2022-10-18T12:09:04.726Z,17.69
2022-10-18T12:11:46.886Z,17.65
2022-10-18T12:14:27.878Z,17.70
2022-10-18T12:17:27.934Z,17.73
2022-10-18T12:19:47.130Z,17.83
2022-10-18T12:22:21.228Z,17.98
2022-10-18T12:24:47.800Z,18.05
2022-10-18T12:27:16.602Z,18.08
2022-10-18T12:29:50.397Z,18.55
2022-10-18T12:32:24.709Z,18.99
2022-10-18T12:34:59.796Z,18.93
2022-10-18T12:37:50.389Z,18.85
2022-10-18T12:40:23.157Z,18.79
2022-10-18T12:42:52.282Z,18.84
2022-10-18T12:45:24.838Z,18.83
2022-10-18T12:47:52.369Z,18.90
2022-10-18T12:50:42.072Z,18.84
2022-10-18T12:53:24.149Z,18.83
2022-10-18T12:55:52.622Z,18.89
2022-10-18T12:58:28.427Z,18.91
2022-10-18T13:00:57.897Z,18.76
2022-10-18T13:03:27.381Z,18.80
2022-10-18T13:05:56.680Z,18.86
2022-10-18T13:08:30.186Z,18.87
2022-10-18T13:11:09.026Z,18.81
2022-10-18T13:13:40.683Z,18.68
2022-10-18T13:16:22.620Z,18.43
2022-10-18T13:18:57.754Z,18.26
2022-10-18T13:21:33.606Z,18.16
2022-10-18T13:24:02.934Z,18.07
2022-10-18T13:26:38.471Z,17.91
2022-10-18T13:29:09.573Z,17.86
2022-10-18T13:31:51.799Z,17.88
2022-10-18T13:34:22.458Z,17.87
2022-10-18T13:37:15.785Z,17.85
2022-10-18T13:39:42.648Z,17.84
2022-10-18T13:42:15.214Z,17.85
2022-10-18T13:44:44.654Z,17.85
2022-10-18T13:47:31.995Z,17.76
2022-10-18T13:50:29.940Z,17.69
2022-10-18T13:53:22.374Z,17.60
2022-10-18T13:56:20.686Z,17.66
2022-10-18T13:59:15.986Z,17.68
2022-10-18T14:02:10.243Z,17.69
2022-10-18T14:05:24.983Z,17.72
2022-10-18T14:07:58.113Z,17.75
2022-10-18T14:10:50.126Z,17.78
2022-10-18T14:13:27.969Z,17.81
2022-10-18T14:15:59.685Z,17.81
2022-10-18T14:18:34.298Z,17.76
2022-10-18T14:21:14.052Z,17.72
2022-10-18T14:23:44.767Z,17.66
2022-10-18T14:26:20.588Z,17.62
2022-10-18T14:29:04.306Z,17.52
2022-10-18T14:31:31.082Z,17.46
2022-10-18T14:33:59.015Z,17.36
2022-10-18T14:36:40.909Z,17.35
2022-10-18T14:39:17.107Z,17.36
2022-10-18T14:41:55.304Z,17.38
2022-10-18T14:44:30.555Z,17.39
2022-10-18T14:47:13.951Z,17.39
2022-10-18T14:49:45.110Z,17.43
2022-10-18T14:52:24.052Z,17.44
2022-10-18T14:54:55.545Z,17.45
2022-10-18T14:57:34.939Z,17.47
2022-10-18T15:00:07.932Z,17.47
2022-10-18T15:02:37.494Z,17.48
2022-10-18T15:05:17.298Z,17.48
2022-10-18T15:10:35.480Z,17.43
2022-10-18T15:13:09.688Z,17.41
2022-10-18T15:15:38.053Z,17.41
2022-10-18T15:18:06.537Z,17.39
2022-10-18T15:20:39.518Z,17.27
2022-10-18T15:23:32.402Z,17.24
2022-10-18T15:26:06.454Z,17.26
2022-10-18T15:28:51.187Z,17.29
2022-10-18T15:31:23.839Z,17.31
2022-10-18T15:33:50.714Z,17.31
2022-10-18T15:36:27.173Z,17.28
2022-10-18T15:38:54.472Z,17.25
2022-10-18T15:41:38.849Z,17.25
2022-10-18T15:44:32.158Z,17.24
2022-10-18T15:47:13.828Z,17.20
2022-10-18T15:49:46.528Z,17.22
2022-10-18T15:52:22.108Z,17.23
2022-10-18T15:57:20.792Z,17.17
2022-10-18T16:00:18.275Z,17.12
2022-10-18T16:02:45.254Z,17.09
2022-10-18T16:05:19.035Z,17.07
2022-10-18T16:07:46.492Z,17.04
2022-10-18T16:10:14.515Z,17.01
2022-10-18T16:12:41.472Z,16.99
2022-10-18T16:15:08.620Z,16.95
2022-10-18T16:17:35.510Z,16.91
2022-10-18T16:20:02.219Z,16.86
2022-10-18T16:22:30.262Z,16.82
2022-10-18T16:24:58.832Z,16.78
2022-10-18T16:27:25.888Z,16.67
2022-10-18T16:29:52.420Z,16.61
2022-10-18T16:32:18.961Z,16.55
2022-10-18T16:34:45.584Z,16.52
2022-10-18T16:37:12.122Z,16.45
2022-10-18T16:39:38.684Z,16.41
2022-10-18T16:42:05.562Z,16.36
2022-10-18T16:44:32.176Z,16.28
2022-10-18T16:46:58.771Z,16.23
2022-10-18T16:49:26.326Z,16.17
2022-10-18T16:51:54.476Z,16.11
2022-10-18T16:54:21.359Z,16.06
2022-10-18T16:56:50.143Z,16.00
2022-10-18T16:59:29.127Z,15.89
2022-10-18T17:01:55.989Z,15.78
2022-10-18T17:04:22.665Z,15.73
2022-10-18T17:06:49.534Z,15.68
2022-10-18T17:09:16.317Z,15.65
2022-10-18T17:11:43.072Z,15.60
2022-10-18T17:14:09.716Z,15.56
2022-10-18T17:16:38.999Z,15.52
2022-10-18T17:19:08.307Z,15.46
2022-10-18T17:21:35.281Z,15.42
2022-10-18T17:24:03.178Z,15.38
2022-10-18T17:26:30.552Z,15.29
2022-10-18T17:29:00.283Z,15.25
2022-10-18T17:31:28.269Z,15.18
2022-10-18T17:33:55.417Z,15.10
2022-10-18T17:36:22.409Z,15.02
2022-10-18T17:38:54.533Z,14.98
2022-10-18T17:41:21.337Z,14.93
2022-10-18T17:43:48.581Z,14.90
2022-10-18T17:46:16.125Z,14.85
2022-10-18T17:48:43.027Z,14.83
2022-10-18T17:51:15.398Z,14.81
2022-10-18T17:53:42.071Z,14.76
2022-10-18T17:56:10.574Z,14.75
2022-10-18T17:58:37.419Z,14.70
2022-10-18T18:01:16.502Z,14.68
2022-10-18T18:03:43.231Z,14.68
2022-10-18T18:06:21.732Z,14.65
2022-10-18T18:08:49.356Z,14.61
2022-10-18T18:11:17.007Z,14.58
2022-10-18T18:13:43.681Z,14.58
2022-10-18T18:16:15.516Z,14.57
2022-10-18T18:18:42.894Z,14.57
2022-10-18T18:21:09.522Z,14.57
2022-10-18T18:23:36.152Z,14.58
2022-10-18T18:26:03.016Z,14.57
2022-10-18T18:28:29.628Z,14.57
2022-10-18T18:30:56.868Z,14.56
2022-10-18T18:33:23.477Z,14.55
2022-10-18T18:35:59.564Z,14.54
2022-10-18T18:38:26.859Z,14.52
2022-10-18T18:41:12.052Z,14.52
2022-10-18T18:43:40.634Z,14.48
2022-10-18T18:46:08.422Z,14.46
2022-10-18T18:48:35.936Z,14.43
2022-10-18T18:51:04.746Z,14.40
2022-10-18T18:53:31.748Z,14.34
2022-10-18T18:56:02.929Z,14.32
2022-10-18T18:58:29.485Z,14.27
2022-10-18T19:00:56.125Z,14.23
2022-10-18T19:03:22.740Z,14.19
2022-10-18T19:05:49.375Z,14.17
2022-10-18T19:08:15.908Z,14.15
2022-10-18T19:10:42.578Z,14.12
2022-10-18T19:13:09.121Z,14.11
2022-10-18T19:15:35.660Z,14.12
2022-10-18T19:18:02.321Z,14.12
2022-10-18T19:20:28.853Z,14.10
2022-10-18T19:22:55.455Z,14.08
2022-10-18T19:25:24.754Z,14.07
2022-10-18T19:27:53.606Z,14.04
2022-10-18T19:30:20.286Z,13.98
2022-10-18T19:32:46.928Z,13.96
2022-10-18T19:35:13.534Z,13.92
2022-10-18T19:37:40.765Z,13.89
2022-10-18T19:40:07.847Z,13.83
2022-10-18T19:42:35.993Z,13.79
2022-10-18T19:45:03.245Z,13.78
2022-10-18T19:47:30.013Z,13.73
2022-10-18T19:49:56.810Z,13.70
2022-10-18T19:52:23.415Z,13.68
2022-10-18T19:54:50.065Z,13.63
2022-10-18T19:57:16.633Z,13.59
2022-10-18T19:59:44.338Z,13.55
2022-10-18T20:02:15.253Z,13.52
2022-10-18T20:04:42.020Z,13.53
2022-10-18T20:07:08.845Z,13.50
2022-10-18T20:09:35.551Z,13.52
2022-10-18T20:12:02.146Z,13.51
2022-10-18T20:14:28.790Z,13.48
2022-10-18T20:16:55.367Z,13.44
2022-10-18T20:19:21.955Z,13.45
2022-10-18T20:21:48.512Z,13.46
2022-10-18T20:24:15.076Z,13.45
2022-10-18T20:26:43.426Z,13.38
2022-10-18T20:29:10.098Z,13.33
2022-10-18T20:31:38.925Z,13.32
2022-10-18T20:34:08.392Z,13.30
2022-10-18T20:36:35.463Z,13.30
2022-10-18T20:39:03.508Z,13.18
2022-10-18T20:41:33.732Z,13.11
2022-10-18T20:44:02.850Z,13.01
2022-10-18T20:46:34.853Z,12.94
2022-10-18T20:49:02.336Z,12.99
2022-10-18T20:51:29.000Z,12.96
2022-10-18T20:53:56.142Z,13.02
2022-10-18T20:56:31.439Z,13.02
2022-10-18T20:58:58.423Z,13.01
2022-10-18T21:01:30.640Z,12.99
2022-10-18T21:03:59.831Z,12.96
2022-10-18T21:06:32.205Z,12.93
2022-10-18T21:09:01.255Z,12.91
2022-10-18T21:11:30.127Z,12.85
2022-10-18T21:14:02.715Z,12.82
2022-10-18T21:16:30.993Z,12.79
2022-10-18T21:19:05.538Z,12.79
2022-10-18T21:21:32.111Z,12.63
2022-10-18T21:24:02.404Z,12.59
2022-10-18T21:26:32.151Z,12.55
2022-10-18T21:29:00.017Z,12.46
2022-10-18T21:31:29.541Z,12.40
2022-10-18T21:34:00.836Z,12.36
2022-10-18T21:36:31.484Z,12.29
2022-10-18T21:38:58.430Z,12.28
2022-10-18T21:41:25.267Z,12.26
2022-10-18T21:43:54.133Z,12.20
2022-10-18T21:46:22.367Z,12.19
2022-10-18T21:48:51.559Z,12.17
2022-10-18T21:51:19.832Z,12.14
2022-10-18T21:53:48.853Z,12.11
2022-10-18T21:56:29.928Z,12.02
2022-10-18T21:58:56.872Z,12.02
2022-10-18T22:01:32.358Z,12.03
2022-10-18T22:04:01.281Z,12.03
2022-10-18T22:06:33.210Z,12.01
2022-10-18T22:09:02.368Z,11.98
2022-10-18T22:11:35.231Z,11.97
2022-10-18T22:14:02.074Z,11.91
2022-10-18T22:16:28.653Z,11.91
2022-10-18T22:19:00.875Z,11.87
2022-10-18T22:21:28.406Z,11.80
2022-10-18T22:23:59.541Z,11.79
2022-10-18T22:26:32.181Z,11.77
2022-10-18T22:29:07.829Z,11.69
2022-10-18T22:31:36.597Z,11.71
2022-10-18T22:34:06.569Z,11.69
2022-10-18T22:36:34.348Z,11.65
2022-10-18T22:39:01.674Z,11.69
2022-10-18T22:41:28.485Z,11.69
2022-10-18T22:43:57.311Z,11.69
2022-10-18T22:46:26.317Z,11.68
2022-10-18T22:48:53.204Z,11.67
2022-10-18T22:51:21.013Z,11.66
2022-10-18T22:53:47.591Z,11.66
2022-10-18T22:56:17.657Z,11.64
2022-10-18T22:58:44.257Z,11.61
2022-10-18T23:01:14.218Z,11.58
2022-10-18T23:03:40.902Z,11.53
2022-10-18T23:06:20.818Z,11.49
2022-10-18T23:08:47.789Z,11.47
2022-10-18T23:11:15.208Z,11.42
2022-10-18T23:13:41.889Z,11.41
2022-10-18T23:16:08.658Z,11.38
2022-10-18T23:18:35.472Z,11.37
2022-10-18T23:21:08.057Z,11.33
2022-10-18T23:23:36.317Z,11.28
2022-10-18T23:26:13.941Z,11.21
2022-10-18T23:28:45.622Z,11.20
2022-10-18T23:31:13.698Z,11.18
2022-10-18T23:33:41.040Z,11.18
2022-10-18T23:36:08.636Z,11.13
2022-10-18T23:38:36.629Z,11.12
2022-10-18T23:41:03.967Z,11.11
2022-10-18T23:43:30.549Z,11.07
2022-10-18T23:45:57.144Z,11.08
2022-10-18T23:48:23.881Z,11.08
2022-10-18T23:50:50.495Z,11.07
2022-10-18T23:53:19.574Z,11.07
2022-10-18T23:55:56.828Z,11.05
2022-10-18T23:58:24.268Z,11.03
